sensor_id;sensor_type;location;lat;lon;timestamp;P1;durP1;ratioP1;P2;durP2;ratioP2
34146;SDS011;20423;49.448;9.056;2023-12-29T00:01:35;17.8;;;14.6;;
34146;SDS011;20423;49.448;9.056;2023-12-29T00:06:53;17.9;;;14.3;;
34146;SDS011;20423;49.448;9.056;2023-12-29T00:12:11;18.9;;;15.8;;
34146;SDS011;20423;49.448;9.056;2023-12-29T00:17:13;18.7;;;15.6;;
34146;SDS011;20423;49.448;9.056;2023-12-29T00:21:51;17.4;;;14.7;;
34146;SDS011;20423;49.448;9.056;2023-12-29T00:27:07;17.4;;;14.4;;
34146;SDS011;20423;49.448;9.056;2023-12-29T00:32:21;17.5;;;14.5;;
34146;SDS011;20423;49.448;9.056;2023-12-29T00:36:35;17.9;;;15.9;;
34146;SDS011;20423;49.448;9.056;2023-12-29T00:42:09;18.4;;;14.8;;
34146;SDS011;20423;49.448;9.056;2023-12-29T00:47:19;18.2;;;16.4;;
34146;SDS011;20423;49.448;9.056;2023-12-29T00:52:13;19.1;;;15.5;;
34146;SDS011;20423;49.448;9.056;2023-12-29T00:56:57;18.1;;;14.1;;
34146;SDS011;20423;49.448;9.056;2023-12-29T01:01:35;18.5;;;15.2;;
34146;SDS011;20423;49.448;9.056;2023-12-29T01:06:35;19.6;;;17.2;;
34146;SDS011;20423;49.448;9.056;2023-12-29T01:11:59;19.9;;;16;;
34146;SDS011;20423;49.448;9.056;2023-12-29T01:16:59;19;;;16;;
34146;SDS011;20423;49.448;9.056;2023-12-29T01:21:37;19.6;;;15.7;;
34146;SDS011;20423;49.448;9.056;2023-12-29T01:27:05;20.4;;;16.9;;
34146;SDS011;20423;49.448;9.056;2023-12-29T01:31:45;20.6;;;17.4;;
34146;SDS011;20423;49.448;9.056;2023-12-29T01:37:22;21.5;;;17.4;;
34146;SDS011;20423;49.448;9.056;2023-12-29T01:41:55;23.2;;;19;;
34146;SDS011;20423;49.448;9.056;2023-12-29T01:47:21;23.3;;;20;;
34146;SDS011;20423;49.448;9.056;2023-12-29T01:52:23;25.3;;;21.9;;
34146;SDS011;20423;49.448;9.056;2023-12-29T01:56:56;25.7;;;21.5;;
34146;SDS011;20423;49.448;9.056;2023-12-29T02:01:51;24;;;19.2;;
34146;SDS011;20423;49.448;9.056;2023-12-29T02:07:19;24.1;;;19.8;;
34146;SDS011;20423;49.448;9.056;2023-12-29T02:11:48;24.8;;;20.4;;
34146;SDS011;20423;49.448;9.056;2023-12-29T02:16:56;21.3;;;18.4;;
34146;SDS011;20423;49.448;9.056;2023-12-29T02:22:10;20.2;;;16.6;;
34146;SDS011;20423;49.448;9.056;2023-12-29T02:27:26;18.4;;;16.2;;
34146;SDS011;20423;49.448;9.056;2023-12-29T02:32:21;20.1;;;16.5;;
34146;SDS011;20423;49.448;9.056;2023-12-29T02:36:48;21.6;;;17;;
34146;SDS011;20423;49.448;9.056;2023-12-29T02:42:19;19.1;;;16.3;;
34146;SDS011;20423;49.448;9.056;2023-12-29T02:47:15;20.4;;;17.9;;
34146;SDS011;20423;49.448;9.056;2023-12-29T02:51:35;19.1;;;16.9;;
34146;SDS011;20423;49.448;9.056;2023-12-29T02:57:07;19.3;;;16.7;;
34146;SDS011;20423;49.448;9.056;2023-12-29T03:01:37;18.4;;;15.5;;
34146;SDS011;20423;49.448;9.056;2023-12-29T03:06:40;19.6;;;16.5;;
34146;SDS011;20423;49.448;9.056;2023-12-29T03:12:09;17.9;;;15;;
34146;SDS011;20423;49.448;9.056;2023-12-29T03:17:23;21.5;;;17.4;;
34146;SDS011;20423;49.448;9.056;2023-12-29T03:22:03;20.2;;;17.2;;
34146;SDS011;20423;49.448;9.056;2023-12-29T03:26:37;20.8;;;17.9;;
34146;SDS011;20423;49.448;9.056;2023-12-29T03:31:35;21;;;16.7;;
34146;SDS011;20423;49.448;9.056;2023-12-29T03:37:19;21.1;;;17.2;;
34146;SDS011;20423;49.448;9.056;2023-12-29T03:41:55;22.7;;;17.9;;
34146;SDS011;20423;49.448;9.056;2023-12-29T03:47:09;20;;;15.8;;
34146;SDS011;20423;49.448;9.056;2023-12-29T03:51:35;22.8;;;19.4;;
34146;SDS011;20423;49.448;9.056;2023-12-29T03:56:35;21.1;;;18;;
34146;SDS011;20423;49.448;9.056;2023-12-29T04:02:23;19.4;;;16.5;;
34146;SDS011;20423;49.448;9.056;2023-12-29T04:06:41;23.4;;;19.6;;
34146;SDS011;20423;49.448;9.056;2023-12-29T04:11:35;24.7;;;20.7;;
34146;SDS011;20423;49.448;9.056;2023-12-29T04:17:19;22.1;;;18.9;;
34146;SDS011;20423;49.448;9.056;2023-12-29T04:22:25;23;;;19.8;;
34146;SDS011;20423;49.448;9.056;2023-12-29T04:26:53;22.8;;;19.1;;
34146;SDS011;20423;49.448;9.056;2023-12-29T04:31:35;22.1;;;18.9;;
34146;SDS011;20423;49.448;9.056;2023-12-29T04:37:13;21.7;;;18;;
34146;SDS011;20423;49.448;9.056;2023-12-29T04:41:48;22.9;;;18.3;;
34146;SDS011;20423;49.448;9.056;2023-12-29T04:46:45;22.9;;;19.7;;
34146;SDS011;20423;49.448;9.056;2023-12-29T04:51:35;21.3;;;18.1;;
34146;SDS011;20423;49.448;9.056;2023-12-29T04:57:25;23.5;;;19.7;;
34146;SDS011;20423;49.448;9.056;2023-12-29T05:01:53;21.2;;;17.4;;
34146;SDS011;20423;49.448;9.056;2023-12-29T05:07:00;23.4;;;19.8;;
34146;SDS011;20423;49.448;9.056;2023-12-29T05:12:25;21;;;19.4;;
34146;SDS011;20423;49.448;9.056;2023-12-29T05:16:51;22.2;;;18.6;;
34146;SDS011;20423;49.448;9.056;2023-12-29T05:22:07;20.3;;;17.1;;
34146;SDS011;20423;49.448;9.056;2023-12-29T05:26:49;22.5;;;18.5;;
34146;SDS011;20423;49.448;9.056;2023-12-29T05:31:35;22.3;;;18.8;;
34146;SDS011;20423;49.448;9.056;2023-12-29T05:36:36;22.2;;;18.4;;
34146;SDS011;20423;49.448;9.056;2023-12-29T05:41:35;23.2;;;19.9;;
34146;SDS011;20423;49.448;9.056;2023-12-29T05:46:46;22.4;;;18.5;;
34146;SDS011;20423;49.448;9.056;2023-12-29T05:51:37;20.8;;;18.5;;
34146;SDS011;20423;49.448;9.056;2023-12-29T05:56:37;21.7;;;18.4;;
34146;SDS011;20423;49.448;9.056;2023-12-29T06:01:47;21.8;;;19.2;;
34146;SDS011;20423;49.448;9.056;2023-12-29T06:06:35;22;;;19;;
34146;SDS011;20423;49.448;9.056;2023-12-29T06:12:24;21;;;17.8;;
34146;SDS011;20423;49.448;9.056;2023-12-29T06:17:13;19.9;;;17.1;;
34146;SDS011;20423;49.448;9.056;2023-12-29T06:21:47;22.6;;;19.6;;
34146;SDS011;20423;49.448;9.056;2023-12-29T06:26:37;18.8;;;15.3;;
34146;SDS011;20423;49.448;9.056;2023-12-29T06:32:23;21.9;;;17.6;;
34146;SDS011;20423;49.448;9.056;2023-12-29T06:36:44;23.1;;;19.1;;
34146;SDS011;20423;49.448;9.056;2023-12-29T06:41:41;21.8;;;18.2;;
34146;SDS011;20423;49.448;9.056;2023-12-29T06:46:38;25.8;;;21;;
34146;SDS011;20423;49.448;9.056;2023-12-29T06:52:27;21.6;;;16.4;;
34146;SDS011;20423;49.448;9.056;2023-12-29T06:57:24;23.5;;;19.9;;
34146;SDS011;20423;49.448;9.056;2023-12-29T07:01:38;22.6;;;18.9;;
34146;SDS011;20423;49.448;9.056;2023-12-29T07:07:10;24.3;;;20.4;;
34146;SDS011;20423;49.448;9.056;2023-12-29T07:11:36;25.6;;;22.3;;
34146;SDS011;20423;49.448;9.056;2023-12-29T07:16:46;27.9;;;23.7;;
34146;SDS011;20423;49.448;9.056;2023-12-29T07:22:14;25;;;20.9;;
34146;SDS011;20423;49.448;9.056;2023-12-29T07:26:59;23.2;;;20.8;;
34146;SDS011;20423;49.448;9.056;2023-12-29T07:31:38;25.7;;;21.7;;
34146;SDS011;20423;49.448;9.056;2023-12-29T07:36:38;23.5;;;20.5;;
34146;SDS011;20423;49.448;9.056;2023-12-29T07:42:26;26.3;;;22;;
34146;SDS011;20423;49.448;9.056;2023-12-29T07:46:42;22.1;;;19.4;;
34146;SDS011;20423;49.448;9.056;2023-12-29T07:52:24;23.9;;;20.3;;
34146;SDS011;20423;49.448;9.056;2023-12-29T07:56:36;22.7;;;19.5;;
34146;SDS011;20423;49.448;9.056;2023-12-29T08:02:28;22.4;;;19.4;;
34146;SDS011;20423;49.448;9.056;2023-12-29T08:07:18;22.8;;;20.6;;
34146;SDS011;20423;49.448;9.056;2023-12-29T08:11:44;22.3;;;18.4;;
34146;SDS011;20423;49.448;9.056;2023-12-29T08:17:04;23.9;;;20.3;;
34146;SDS011;20423;49.448;9.056;2023-12-29T08:21:54;21;;;18.9;;
34146;SDS011;20423;49.448;9.056;2023-12-29T08:27:26;23.6;;;19.6;;
34146;SDS011;20423;49.448;9.056;2023-12-29T08:31:36;23.8;;;20.8;;
34146;SDS011;20423;49.448;9.056;2023-12-29T08:36:52;23.8;;;20.6;;
34146;SDS011;20423;49.448;9.056;2023-12-29T08:42:04;22.4;;;20.1;;
34146;SDS011;20423;49.448;9.056;2023-12-29T08:47:26;25.3;;;21.7;;
34146;SDS011;20423;49.448;9.056;2023-12-29T08:52:04;24.8;;;21.2;;
34146;SDS011;20423;49.448;9.056;2023-12-29T08:56:42;25.8;;;23;;
34146;SDS011;20423;49.448;9.056;2023-12-29T09:02:18;21.6;;;18.2;;
34146;SDS011;20423;49.448;9.056;2023-12-29T09:07:18;25.8;;;21.5;;
34146;SDS011;20423;49.448;9.056;2023-12-29T09:11:36;25.3;;;20.8;;
34146;SDS011;20423;49.448;9.056;2023-12-29T09:16:44;26.2;;;22.5;;
34146;SDS011;20423;49.448;9.056;2023-12-29T09:22:24;21.9;;;18.7;;
34146;SDS011;20423;49.448;9.056;2023-12-29T09:27:04;25.4;;;21.4;;
34146;SDS011;20423;49.448;9.056;2023-12-29T09:31:44;23.6;;;20.6;;
34146;SDS011;20423;49.448;9.056;2023-12-29T09:37:26;24.8;;;22.6;;
34146;SDS011;20423;49.448;9.056;2023-12-29T09:42:18;26.4;;;22.1;;
34146;SDS011;20423;49.448;9.056;2023-12-29T09:47:08;25.4;;;21.8;;
34146;SDS011;20423;49.448;9.056;2023-12-29T09:51:44;25.2;;;22.5;;
34146;SDS011;20423;49.448;9.056;2023-12-29T09:56:36;26.5;;;22.8;;
34146;SDS011;20423;49.448;9.056;2023-12-29T10:01:36;26.8;;;22.7;;
34146;SDS011;20423;49.448;9.056;2023-12-29T10:06:36;23.3;;;19.9;;
34146;SDS011;20423;49.448;9.056;2023-12-29T10:12:16;23.7;;;19.8;;
34146;SDS011;20423;49.448;9.056;2023-12-29T10:16:38;24.2;;;20.9;;
34146;SDS011;20423;49.448;9.056;2023-12-29T10:22:03;22.7;;;19;;
34146;SDS011;20423;49.448;9.056;2023-12-29T10:26:52;25.4;;;22.4;;
34146;SDS011;20423;49.448;9.056;2023-12-29T10:31:36;25.2;;;22.2;;
34146;SDS011;20423;49.448;9.056;2023-12-29T10:37:24;23;;;20.8;;
34146;SDS011;20423;49.448;9.056;2023-12-29T10:42:26;22.6;;;20.6;;
34146;SDS011;20423;49.448;9.056;2023-12-29T10:46:54;24.3;;;21.4;;
34146;SDS011;20423;49.448;9.056;2023-12-29T10:52:24;22;;;19.5;;
34146;SDS011;20423;49.448;9.056;2023-12-29T10:57:24;21.4;;;18.9;;
34146;SDS011;20423;49.448;9.056;2023-12-29T11:01:52;22.9;;;19.3;;
34146;SDS011;20423;49.448;9.056;2023-12-29T11:06:42;25.1;;;21.7;;
34146;SDS011;20423;49.448;9.056;2023-12-29T11:12:04;23.8;;;20.6;;
34146;SDS011;20423;49.448;9.056;2023-12-29T11:17:24;21.7;;;18.1;;
34146;SDS011;20423;49.448;9.056;2023-12-29T11:22:06;22.4;;;19.6;;
34146;SDS011;20423;49.448;9.056;2023-12-29T11:26:42;25.4;;;21.7;;
34146;SDS011;20423;49.448;9.056;2023-12-29T11:32:23;24.2;;;20.2;;
34146;SDS011;20423;49.448;9.056;2023-12-29T11:37:05;24.5;;;20.5;;
34146;SDS011;20423;49.448;9.056;2023-12-29T11:41:37;22.2;;;19.3;;
34146;SDS011;20423;49.448;9.056;2023-12-29T11:47:18;23.1;;;20.9;;
34146;SDS011;20423;49.448;9.056;2023-12-29T11:52:04;23.9;;;21.7;;
34146;SDS011;20423;49.448;9.056;2023-12-29T11:56:48;29.1;;;25.3;;
34146;SDS011;20423;49.448;9.056;2023-12-29T12:02:26;26.7;;;23.2;;
34146;SDS011;20423;49.448;9.056;2023-12-29T12:07:56;28.2;;;23.6;;
34146;SDS011;20423;49.448;9.056;2023-12-29T12:11:44;32.3;;;27.1;;
34146;SDS011;20423;49.448;9.056;2023-12-29T12:17:26;26.8;;;22.6;;
34146;SDS011;20423;49.448;9.056;2023-12-29T12:22:00;28.5;;;25.4;;
34146;SDS011;20423;49.448;9.056;2023-12-29T12:27:24;29.9;;;26.2;;
34146;SDS011;20423;49.448;9.056;2023-12-29T12:32:16;30.6;;;26.7;;
34146;SDS011;20423;49.448;9.056;2023-12-29T12:37:04;28.5;;;24.9;;
34146;SDS011;20423;49.448;9.056;2023-12-29T12:41:36;29.6;;;26.1;;
34146;SDS011;20423;49.448;9.056;2023-12-29T12:47:24;29.7;;;26.8;;
34146;SDS011;20423;49.448;9.056;2023-12-29T12:51:54;30.8;;;26.8;;
34146;SDS011;20423;49.448;9.056;2023-12-29T12:57:02;28.4;;;24.6;;
34146;SDS011;20423;49.448;9.056;2023-12-29T13:02:04;27.8;;;25.1;;
34146;SDS011;20423;49.448;9.056;2023-12-29T13:07:26;31;;;26.5;;
34146;SDS011;20423;49.448;9.056;2023-12-29T13:12:26;31.7;;;27;;
34146;SDS011;20423;49.448;9.056;2023-12-29T13:16:56;27.8;;;23.4;;
34146;SDS011;20423;49.448;9.056;2023-12-29T13:21:36;25.7;;;22.7;;
34146;SDS011;20423;49.448;9.056;2023-12-29T13:27:18;25.1;;;20.6;;
34146;SDS011;20423;49.448;9.056;2023-12-29T13:32:18;24.2;;;21;;
34146;SDS011;20423;49.448;9.056;2023-12-29T13:36:42;24.6;;;22.2;;
34146;SDS011;20423;49.448;9.056;2023-12-29T13:42:14;27.8;;;24.2;;
34146;SDS011;20423;49.448;9.056;2023-12-29T13:47:14;27.2;;;22.9;;
34146;SDS011;20423;49.448;9.056;2023-12-29T13:52:16;26.4;;;22.6;;
34146;SDS011;20423;49.448;9.056;2023-12-29T13:56:56;26.7;;;22.2;;
34146;SDS011;20423;49.448;9.056;2023-12-29T14:02:27;24;;;21.1;;
34146;SDS011;20423;49.448;9.056;2023-12-29T14:07:26;26.2;;;22.4;;
34146;SDS011;20423;49.448;9.056;2023-12-29T14:11:54;22.4;;;18.9;;
34146;SDS011;20423;49.448;9.056;2023-12-29T14:16:38;22.8;;;20.3;;
34146;SDS011;20423;49.448;9.056;2023-12-29T14:21:42;25.4;;;22.7;;
34146;SDS011;20423;49.448;9.056;2023-12-29T14:26:36;25.6;;;22.6;;
34146;SDS011;20423;49.448;9.056;2023-12-29T14:31:37;23.8;;;21.8;;
34146;SDS011;20423;49.448;9.056;2023-12-29T14:37:24;26.5;;;22.7;;
34146;SDS011;20423;49.448;9.056;2023-12-29T14:42:02;24.7;;;20.7;;
34146;SDS011;20423;49.448;9.056;2023-12-29T14:47:24;22;;;19.4;;
34146;SDS011;20423;49.448;9.056;2023-12-29T14:52:26;24.1;;;20.5;;
34146;SDS011;20423;49.448;9.056;2023-12-29T14:56:56;18.9;;;16.3;;
34146;SDS011;20423;49.448;9.056;2023-12-29T15:01:36;23.6;;;19.3;;
34146;SDS011;20423;49.448;9.056;2023-12-29T15:07:28;21.5;;;18.9;;
34146;SDS011;20423;49.448;9.056;2023-12-29T15:11:44;21.4;;;18.6;;
34146;SDS011;20423;49.448;9.056;2023-12-29T15:16:58;22.9;;;19.7;;
34146;SDS011;20423;49.448;9.056;2023-12-29T15:21:56;22;;;19.1;;
34146;SDS011;20423;49.448;9.056;2023-12-29T15:26:48;20.7;;;17.9;;
34146;SDS011;20423;49.448;9.056;2023-12-29T15:31:58;21.6;;;18.2;;
34146;SDS011;20423;49.448;9.056;2023-12-29T15:36:38;19.4;;;16.1;;
34146;SDS011;20423;49.448;9.056;2023-12-29T15:42:26;19.3;;;17.8;;
34146;SDS011;20423;49.448;9.056;2023-12-29T15:47:28;21.8;;;19.8;;
34146;SDS011;20423;49.448;9.056;2023-12-29T15:51:36;21.1;;;18.8;;
34146;SDS011;20423;49.448;9.056;2023-12-29T15:57:28;21.2;;;17.3;;
34146;SDS011;20423;49.448;9.056;2023-12-29T16:01:36;21.5;;;18.6;;
34146;SDS011;20423;49.448;9.056;2023-12-29T16:06:36;22.6;;;18.9;;
34146;SDS011;20423;49.448;9.056;2023-12-29T16:11:38;20;;;17.3;;
34146;SDS011;20423;49.448;9.056;2023-12-29T16:17:04;20.7;;;18.2;;
34146;SDS011;20423;49.448;9.056;2023-12-29T16:22:02;19.7;;;16.6;;
34146;SDS011;20423;49.448;9.056;2023-12-29T16:27:14;19.4;;;16.3;;
34146;SDS011;20423;49.448;9.056;2023-12-29T16:32:28;20.3;;;16.7;;
34146;SDS011;20423;49.448;9.056;2023-12-29T16:36:36;20.9;;;18.1;;
34146;SDS011;20423;49.448;9.056;2023-12-29T16:42:26;16.7;;;15;;
34146;SDS011;20423;49.448;9.056;2023-12-29T16:47:08;17;;;14.8;;
34146;SDS011;20423;49.448;9.056;2023-12-29T16:52:20;16.8;;;14.3;;
34146;SDS011;20423;49.448;9.056;2023-12-29T16:56:58;17.9;;;15;;
34146;SDS011;20423;49.448;9.056;2023-12-29T17:01:46;18.6;;;15.9;;
34146;SDS011;20423;49.448;9.056;2023-12-29T17:07:28;17.6;;;14.3;;
34146;SDS011;20423;49.448;9.056;2023-12-29T17:12:18;13.2;;;11.3;;
34146;SDS011;20423;49.448;9.056;2023-12-29T17:17:14;18.1;;;15.1;;
34146;SDS011;20423;49.448;9.056;2023-12-29T17:21:42;17.6;;;14.7;;
34146;SDS011;20423;49.448;9.056;2023-12-29T17:26:42;15.9;;;14.1;;
34146;SDS011;20423;49.448;9.056;2023-12-29T17:32:28;17.8;;;15.2;;
34146;SDS011;20423;49.448;9.056;2023-12-29T17:37:28;16;;;13.8;;
34146;SDS011;20423;49.448;9.056;2023-12-29T17:42:02;17.7;;;14.5;;
34146;SDS011;20423;49.448;9.056;2023-12-29T17:46:50;17.5;;;14.9;;
34146;SDS011;20423;49.448;9.056;2023-12-29T17:51:40;15.4;;;13.6;;
34146;SDS011;20423;49.448;9.056;2023-12-29T17:57:06;14.9;;;12.6;;
34146;SDS011;20423;49.448;9.056;2023-12-29T18:01:54;14;;;10.9;;
34146;SDS011;20423;49.448;9.056;2023-12-29T18:07:06;14;;;12.3;;
34146;SDS011;20423;49.448;9.056;2023-12-29T18:12:28;13.3;;;11.1;;
34146;SDS011;20423;49.448;9.056;2023-12-29T18:16:36;13.8;;;12.1;;
34146;SDS011;20423;49.448;9.056;2023-12-29T18:22:04;12.3;;;10.7;;
34146;SDS011;20423;49.448;9.056;2023-12-29T18:27:28;14.9;;;13;;
34146;SDS011;20423;49.448;9.056;2023-12-29T18:32:16;16.3;;;14.6;;
34146;SDS011;20423;49.448;9.056;2023-12-29T18:36:52;16.3;;;13.1;;
34146;SDS011;20423;49.448;9.056;2023-12-29T18:41:58;16.9;;;14.4;;
34146;SDS011;20423;49.448;9.056;2023-12-29T18:46:44;14;;;12.5;;
34146;SDS011;20423;49.448;9.056;2023-12-29T18:51:36;16.8;;;13.8;;
34146;SDS011;20423;49.448;9.056;2023-12-29T18:56:56;17.2;;;15;;
34146;SDS011;20423;49.448;9.056;2023-12-29T19:02:26;17.5;;;14.6;;
34146;SDS011;20423;49.448;9.056;2023-12-29T19:06:38;17.2;;;15.3;;
34146;SDS011;20423;49.448;9.056;2023-12-29T19:12:26;17.1;;;15.4;;
34146;SDS011;20423;49.448;9.056;2023-12-29T19:17:06;18.1;;;14.8;;
34146;SDS011;20423;49.448;9.056;2023-12-29T19:21:39;15.9;;;13.9;;
34146;SDS011;20423;49.448;9.056;2023-12-29T19:26:36;16.4;;;14.1;;
34146;SDS011;20423;49.448;9.056;2023-12-29T19:32:04;16.7;;;14.5;;
34146;SDS011;20423;49.448;9.056;2023-12-29T19:36:54;16.4;;;13.5;;
34146;SDS011;20423;49.448;9.056;2023-12-29T19:42:04;15.2;;;12.4;;
34146;SDS011;20423;49.448;9.056;2023-12-29T19:46:58;14.4;;;13.2;;
34146;SDS011;20423;49.448;9.056;2023-12-29T19:51:56;15.2;;;13.6;;
34146;SDS011;20423;49.448;9.056;2023-12-29T19:56:48;14.8;;;13.3;;
34146;SDS011;20423;49.448;9.056;2023-12-29T20:02:14;15.9;;;13;;
34146;SDS011;20423;49.448;9.056;2023-12-29T20:07:26;13.4;;;11.7;;
34146;SDS011;20423;49.448;9.056;2023-12-29T20:12:24;19.3;;;17.4;;
34146;SDS011;20423;49.448;9.056;2023-12-29T20:16:36;19;;;15.2;;
34146;SDS011;20423;49.448;9.056;2023-12-29T20:22:28;16.8;;;14.5;;
34146;SDS011;20423;49.448;9.056;2023-12-29T20:26:36;15.4;;;12.9;;
34146;SDS011;20423;49.448;9.056;2023-12-29T20:32:10;14.7;;;13.4;;
34146;SDS011;20423;49.448;9.056;2023-12-29T20:37:12;13.7;;;12.4;;
34146;SDS011;20423;49.448;9.056;2023-12-29T20:41:38;13.8;;;12.2;;
34146;SDS011;20423;49.448;9.056;2023-12-29T20:47:16;13.4;;;12;;
34146;SDS011;20423;49.448;9.056;2023-12-29T20:51:38;13.9;;;12;;
34146;SDS011;20423;49.448;9.056;2023-12-29T20:57:28;14.8;;;12.6;;
34146;SDS011;20423;49.448;9.056;2023-12-29T21:01:36;14.9;;;12.5;;
34146;SDS011;20423;49.448;9.056;2023-12-29T21:07:28;15.7;;;13.5;;
34146;SDS011;20423;49.448;9.056;2023-12-29T21:12:02;13.6;;;12.7;;
34146;SDS011;20423;49.448;9.056;2023-12-29T21:17:26;15;;;13.6;;
34146;SDS011;20423;49.448;9.056;2023-12-29T21:22:16;15.1;;;13.7;;
34146;SDS011;20423;49.448;9.056;2023-12-29T21:26:38;14.8;;;13;;
34146;SDS011;20423;49.448;9.056;2023-12-29T21:32:16;14.7;;;13;;
34146;SDS011;20423;49.448;9.056;2023-12-29T21:36:36;15;;;13.3;;
34146;SDS011;20423;49.448;9.056;2023-12-29T21:42:28;13.2;;;11.9;;
34146;SDS011;20423;49.448;9.056;2023-12-29T21:46:56;13.6;;;12.2;;
34146;SDS011;20423;49.448;9.056;2023-12-29T21:51:56;13.1;;;11.2;;
34146;SDS011;20423;49.448;9.056;2023-12-29T21:57:28;12.1;;;10.4;;
34146;SDS011;20423;49.448;9.056;2023-12-29T22:02:28;14.8;;;12;;
34146;SDS011;20423;49.448;9.056;2023-12-29T22:06:37;12.9;;;11;;
34146;SDS011;20423;49.448;9.056;2023-12-29T22:11:36;14.6;;;12.1;;
34146;SDS011;20423;49.448;9.056;2023-12-29T22:17:16;14;;;12.1;;
34146;SDS011;20423;49.448;9.056;2023-12-29T22:22:16;13.8;;;11.2;;
34146;SDS011;20423;49.448;9.056;2023-12-29T22:26:56;14.8;;;12.2;;
34146;SDS011;20423;49.448;9.056;2023-12-29T22:31:50;12.4;;;11;;
34146;SDS011;20423;49.448;9.056;2023-12-29T22:37:26;12.8;;;11.4;;
34146;SDS011;20423;49.448;9.056;2023-12-29T22:41:36;12.6;;;10.7;;
34146;SDS011;20423;49.448;9.056;2023-12-29T22:46:36;11.6;;;10.4;;
34146;SDS011;20423;49.448;9.056;2023-12-29T22:52:28;13.2;;;10.6;;
34146;SDS011;20423;49.448;9.056;2023-12-29T22:56:46;12.2;;;11;;
34146;SDS011;20423;49.448;9.056;2023-12-29T23:01:54;12;;;10.1;;
34146;SDS011;20423;49.448;9.056;2023-12-29T23:07:06;10.5;;;8.7;;
34146;SDS011;20423;49.448;9.056;2023-12-29T23:11:36;11;;;9.7;;
34146;SDS011;20423;49.448;9.056;2023-12-29T23:16:36;11.1;;;9.2;;
34146;SDS011;20423;49.448;9.056;2023-12-29T23:22:02;10.5;;;8.8;;
34146;SDS011;20423;49.448;9.056;2023-12-29T23:26:42;10.9;;;9.2;;
34146;SDS011;20423;49.448;9.056;2023-12-29T23:32:14;9.2;;;7.4;;
34146;SDS011;20423;49.448;9.056;2023-12-29T23:37:28;11.4;;;9.1;;
34146;SDS011;20423;49.448;9.056;2023-12-29T23:41:42;11.6;;;9.8;;
34146;SDS011;20423;49.448;9.056;2023-12-29T23:46:42;9.9;;;8.4;;
34146;SDS011;20423;49.448;9.056;2023-12-29T23:51:36;11.1;;;9;;
34146;SDS011;20423;49.448;9.056;2023-12-29T23:57:14;10.6;;;9.8;;
